sensor_id;sensor_type;location;lat;lon;timestamp;P1;durP1;ratioP1;P2;durP2;ratioP2
84738;SDS011;74969;44.836;-0.586;2024-02-26T00:00:32;16.37;;;3.50;;
84738;SDS011;74969;44.836;-0.586;2024-02-26T00:02:59;18.13;;;3.08;;
84738;SDS011;74969;44.836;-0.586;2024-02-26T00:05:25;20.35;;;3.83;;
84738;SDS011;74969;44.836;-0.586;2024-02-26T00:07:51;22.40;;;2.77;;
84738;SDS011;74969;44.836;-0.586;2024-02-26T00:10:17;14.55;;;2.53;;
84738;SDS011;74969;44.836;-0.586;2024-02-26T00:12:43;18.52;;;3.15;;
84738;SDS011;74969;44.836;-0.586;2024-02-26T00:15:09;17.47;;;2.40;;
84738;SDS011;74969;44.836;-0.586;2024-02-26T00:17:35;21.67;;;3.13;;
84738;SDS011;74969;44.836;-0.586;2024-02-26T00:20:02;18.85;;;3.55;;
84738;SDS011;74969;44.836;-0.586;2024-02-26T00:22:29;17.87;;;3.47;;
84738;SDS011;74969;44.836;-0.586;2024-02-26T00:24:56;18.42;;;3.40;;
84738;SDS011;74969;44.836;-0.586;2024-02-26T00:27:21;22.33;;;3.58;;
84738;SDS011;74969;44.836;-0.586;2024-02-26T00:29:47;20.23;;;3.07;;
84738;SDS011;74969;44.836;-0.586;2024-02-26T00:32:13;17.37;;;3.07;;
84738;SDS011;74969;44.836;-0.586;2024-02-26T00:34:39;18.55;;;3.22;;
84738;SDS011;74969;44.836;-0.586;2024-02-26T00:37:04;18.40;;;2.95;;
84738;SDS011;74969;44.836;-0.586;2024-02-26T00:39:30;15.90;;;2.60;;
84738;SDS011;74969;44.836;-0.586;2024-02-26T00:41:55;20.23;;;2.57;;
84738;SDS011;74969;44.836;-0.586;2024-02-26T00:44:22;23.17;;;2.83;;
84738;SDS011;74969;44.836;-0.586;2024-02-26T00:46:47;21.95;;;3.25;;
84738;SDS011;74969;44.836;-0.586;2024-02-26T00:49:13;26.47;;;3.50;;
84738;SDS011;74969;44.836;-0.586;2024-02-26T00:51:38;17.13;;;4.10;;
84738;SDS011;74969;44.836;-0.586;2024-02-26T00:54:04;12.80;;;2.63;;
84738;SDS011;74969;44.836;-0.586;2024-02-26T00:56:30;24.80;;;3.27;;
84738;SDS011;74969;44.836;-0.586;2024-02-26T00:58:55;26.48;;;3.15;;
84738;SDS011;74969;44.836;-0.586;2024-02-26T01:01:21;17.90;;;3.40;;
84738;SDS011;74969;44.836;-0.586;2024-02-26T01:03:47;19.30;;;3.23;;
84738;SDS011;74969;44.836;-0.586;2024-02-26T01:06:12;15.15;;;3.30;;
84738;SDS011;74969;44.836;-0.586;2024-02-26T01:08:38;19.93;;;2.87;;
84738;SDS011;74969;44.836;-0.586;2024-02-26T01:11:04;20.80;;;2.63;;
84738;SDS011;74969;44.836;-0.586;2024-02-26T01:13:29;18.97;;;3.10;;
84738;SDS011;74969;44.836;-0.586;2024-02-26T01:15:55;21.08;;;2.95;;
84738;SDS011;74969;44.836;-0.586;2024-02-26T01:18:21;22.93;;;3.03;;
84738;SDS011;74969;44.836;-0.586;2024-02-26T01:20:47;25.20;;;3.25;;
84738;SDS011;74969;44.836;-0.586;2024-02-26T01:23:13;17.35;;;2.80;;
84738;SDS011;74969;44.836;-0.586;2024-02-26T01:25:38;23.83;;;3.47;;
84738;SDS011;74969;44.836;-0.586;2024-02-26T01:28:04;20.70;;;3.90;;
84738;SDS011;74969;44.836;-0.586;2024-02-26T01:30:30;16.00;;;2.53;;
84738;SDS011;74969;44.836;-0.586;2024-02-26T01:32:56;17.27;;;2.58;;
84738;SDS011;74969;44.836;-0.586;2024-02-26T01:35:22;22.10;;;3.72;;
84738;SDS011;74969;44.836;-0.586;2024-02-26T01:37:48;22.97;;;2.63;;
84738;SDS011;74969;44.836;-0.586;2024-02-26T01:40:13;17.55;;;3.33;;
84738;SDS011;74969;44.836;-0.586;2024-02-26T01:42:44;19.20;;;3.60;;
84738;SDS011;74969;44.836;-0.586;2024-02-26T01:45:12;23.10;;;3.22;;
84738;SDS011;74969;44.836;-0.586;2024-02-26T01:47:41;13.68;;;2.47;;
84738;SDS011;74969;44.836;-0.586;2024-02-26T01:50:07;19.13;;;3.38;;
84738;SDS011;74969;44.836;-0.586;2024-02-26T01:52:34;17.87;;;2.97;;
84738;SDS011;74969;44.836;-0.586;2024-02-26T01:55:00;23.83;;;3.28;;
84738;SDS011;74969;44.836;-0.586;2024-02-26T01:57:27;21.80;;;3.05;;
84738;SDS011;74969;44.836;-0.586;2024-02-26T01:59:53;18.40;;;2.72;;
84738;SDS011;74969;44.836;-0.586;2024-02-26T02:02:19;16.85;;;2.42;;
84738;SDS011;74969;44.836;-0.586;2024-02-26T02:04:45;21.57;;;2.20;;
84738;SDS011;74969;44.836;-0.586;2024-02-26T02:07:11;12.25;;;1.63;;
84738;SDS011;74969;44.836;-0.586;2024-02-26T02:09:37;19.38;;;2.80;;
84738;SDS011;74969;44.836;-0.586;2024-02-26T02:12:03;15.07;;;2.40;;
84738;SDS011;74969;44.836;-0.586;2024-02-26T02:14:31;19.55;;;3.20;;
84738;SDS011;74969;44.836;-0.586;2024-02-26T02:16:56;20.17;;;3.70;;
84738;SDS011;74969;44.836;-0.586;2024-02-26T02:19:22;14.05;;;2.67;;
84738;SDS011;74969;44.836;-0.586;2024-02-26T02:21:48;18.63;;;2.93;;
84738;SDS011;74969;44.836;-0.586;2024-02-26T02:24:13;19.23;;;3.67;;
84738;SDS011;74969;44.836;-0.586;2024-02-26T02:26:39;18.07;;;2.23;;
84738;SDS011;74969;44.836;-0.586;2024-02-26T02:29:05;18.35;;;3.15;;
84738;SDS011;74969;44.836;-0.586;2024-02-26T02:31:31;17.47;;;3.20;;
84738;SDS011;74969;44.836;-0.586;2024-02-26T02:33:58;22.67;;;3.95;;
84738;SDS011;74969;44.836;-0.586;2024-02-26T02:36:24;22.08;;;3.08;;
84738;SDS011;74969;44.836;-0.586;2024-02-26T02:38:50;23.60;;;3.85;;
84738;SDS011;74969;44.836;-0.586;2024-02-26T02:41:16;25.30;;;3.83;;
84738;SDS011;74969;44.836;-0.586;2024-02-26T02:43:42;21.35;;;3.20;;
84738;SDS011;74969;44.836;-0.586;2024-02-26T02:46:07;20.03;;;2.87;;
84738;SDS011;74969;44.836;-0.586;2024-02-26T02:48:33;21.33;;;3.22;;
84738;SDS011;74969;44.836;-0.586;2024-02-26T02:50:59;24.17;;;3.13;;
84738;SDS011;74969;44.836;-0.586;2024-02-26T02:53:24;23.50;;;2.85;;
84738;SDS011;74969;44.836;-0.586;2024-02-26T02:55:50;26.03;;;3.90;;
84738;SDS011;74969;44.836;-0.586;2024-02-26T02:58:15;19.70;;;2.80;;
84738;SDS011;74969;44.836;-0.586;2024-02-26T03:00:41;21.27;;;2.97;;
84738;SDS011;74969;44.836;-0.586;2024-02-26T03:03:07;18.67;;;3.00;;
84738;SDS011;74969;44.836;-0.586;2024-02-26T03:05:32;12.27;;;2.25;;
84738;SDS011;74969;44.836;-0.586;2024-02-26T03:07:58;24.00;;;2.80;;
84738;SDS011;74969;44.836;-0.586;2024-02-26T03:10:24;14.07;;;2.10;;
84738;SDS011;74969;44.836;-0.586;2024-02-26T03:12:50;12.97;;;2.93;;
84738;SDS011;74969;44.836;-0.586;2024-02-26T03:15:16;18.45;;;2.92;;
84738;SDS011;74969;44.836;-0.586;2024-02-26T03:17:41;21.03;;;3.33;;
84738;SDS011;74969;44.836;-0.586;2024-02-26T03:20:07;13.20;;;2.20;;
84738;SDS011;74969;44.836;-0.586;2024-02-26T03:22:34;20.80;;;3.70;;
84738;SDS011;74969;44.836;-0.586;2024-02-26T03:25:00;20.33;;;3.53;;
84738;SDS011;74969;44.836;-0.586;2024-02-26T03:27:26;20.50;;;3.85;;
84738;SDS011;74969;44.836;-0.586;2024-02-26T03:29:52;19.60;;;2.63;;
84738;SDS011;74969;44.836;-0.586;2024-02-26T03:32:18;18.25;;;3.22;;
84738;SDS011;74969;44.836;-0.586;2024-02-26T03:34:43;11.23;;;2.30;;
84738;SDS011;74969;44.836;-0.586;2024-02-26T03:37:09;14.38;;;2.47;;
84738;SDS011;74969;44.836;-0.586;2024-02-26T03:39:36;21.67;;;4.20;;
84738;SDS011;74969;44.836;-0.586;2024-02-26T03:42:02;11.43;;;2.20;;
84738;SDS011;74969;44.836;-0.586;2024-02-26T03:44:28;19.08;;;3.33;;
84738;SDS011;74969;44.836;-0.586;2024-02-26T03:46:53;17.97;;;2.47;;
84738;SDS011;74969;44.836;-0.586;2024-02-26T03:49:19;20.08;;;4.60;;
84738;SDS011;74969;44.836;-0.586;2024-02-26T03:51:45;15.60;;;2.70;;
84738;SDS011;74969;44.836;-0.586;2024-02-26T03:54:10;15.82;;;2.55;;
84738;SDS011;74969;44.836;-0.586;2024-02-26T03:56:36;14.83;;;2.40;;
84738;SDS011;74969;44.836;-0.586;2024-02-26T03:59:01;12.67;;;2.30;;
84738;SDS011;74969;44.836;-0.586;2024-02-26T04:01:27;19.75;;;2.78;;
84738;SDS011;74969;44.836;-0.586;2024-02-26T04:03:53;25.55;;;3.25;;
84738;SDS011;74969;44.836;-0.586;2024-02-26T04:06:19;21.63;;;2.97;;
84738;SDS011;74969;44.836;-0.586;2024-02-26T04:08:46;19.38;;;3.75;;
84738;SDS011;74969;44.836;-0.586;2024-02-26T04:11:12;18.38;;;3.60;;
84738;SDS011;74969;44.836;-0.586;2024-02-26T04:13:38;20.67;;;2.95;;
84738;SDS011;74969;44.836;-0.586;2024-02-26T04:16:04;19.27;;;2.97;;
84738;SDS011;74969;44.836;-0.586;2024-02-26T04:18:31;17.25;;;2.55;;
84738;SDS011;74969;44.836;-0.586;2024-02-26T04:20:57;13.40;;;2.45;;
84738;SDS011;74969;44.836;-0.586;2024-02-26T04:23:22;26.13;;;3.87;;
84738;SDS011;74969;44.836;-0.586;2024-02-26T04:25:48;22.63;;;3.28;;
84738;SDS011;74969;44.836;-0.586;2024-02-26T04:28:14;12.37;;;2.20;;
84738;SDS011;74969;44.836;-0.586;2024-02-26T04:30:40;19.45;;;2.90;;
84738;SDS011;74969;44.836;-0.586;2024-02-26T04:33:06;14.02;;;2.85;;
84738;SDS011;74969;44.836;-0.586;2024-02-26T04:35:32;18.90;;;2.33;;
84738;SDS011;74969;44.836;-0.586;2024-02-26T04:37:57;17.50;;;2.50;;
84738;SDS011;74969;44.836;-0.586;2024-02-26T04:40:23;15.95;;;3.13;;
84738;SDS011;74969;44.836;-0.586;2024-02-26T04:42:49;16.83;;;2.93;;
84738;SDS011;74969;44.836;-0.586;2024-02-26T04:45:15;11.40;;;2.50;;
84738;SDS011;74969;44.836;-0.586;2024-02-26T04:47:40;19.80;;;2.40;;
84738;SDS011;74969;44.836;-0.586;2024-02-26T04:50:06;13.68;;;2.20;;
84738;SDS011;74969;44.836;-0.586;2024-02-26T04:52:32;13.48;;;2.03;;
84738;SDS011;74969;44.836;-0.586;2024-02-26T04:54:58;11.10;;;2.27;;
84738;SDS011;74969;44.836;-0.586;2024-02-26T04:57:25;12.98;;;2.35;;
84738;SDS011;74969;44.836;-0.586;2024-02-26T04:59:51;14.32;;;1.98;;
84738;SDS011;74969;44.836;-0.586;2024-02-26T05:02:17;17.20;;;2.57;;
84738;SDS011;74969;44.836;-0.586;2024-02-26T05:04:43;14.80;;;2.13;;
84738;SDS011;74969;44.836;-0.586;2024-02-26T05:07:09;12.97;;;1.77;;
84738;SDS011;74969;44.836;-0.586;2024-02-26T05:09:34;15.25;;;2.38;;
84738;SDS011;74969;44.836;-0.586;2024-02-26T05:12:00;13.03;;;2.83;;
84738;SDS011;74969;44.836;-0.586;2024-02-26T05:14:26;22.42;;;2.90;;
84738;SDS011;74969;44.836;-0.586;2024-02-26T05:16:52;11.85;;;2.67;;
84738;SDS011;74969;44.836;-0.586;2024-02-26T05:19:18;17.47;;;2.87;;
84738;SDS011;74969;44.836;-0.586;2024-02-26T05:21:43;21.37;;;4.10;;
84738;SDS011;74969;44.836;-0.586;2024-02-26T05:24:09;20.73;;;2.65;;
84738;SDS011;74969;44.836;-0.586;2024-02-26T05:26:35;24.33;;;3.63;;
84738;SDS011;74969;44.836;-0.586;2024-02-26T05:29:01;20.57;;;2.93;;
84738;SDS011;74969;44.836;-0.586;2024-02-26T05:31:27;20.38;;;3.53;;
84738;SDS011;74969;44.836;-0.586;2024-02-26T05:33:53;17.05;;;3.00;;
84738;SDS011;74969;44.836;-0.586;2024-02-26T05:36:20;18.60;;;2.80;;
84738;SDS011;74969;44.836;-0.586;2024-02-26T05:38:47;13.55;;;2.45;;
84738;SDS011;74969;44.836;-0.586;2024-02-26T05:41:14;24.05;;;3.13;;
84738;SDS011;74969;44.836;-0.586;2024-02-26T05:43:40;14.02;;;2.28;;
84738;SDS011;74969;44.836;-0.586;2024-02-26T05:46:06;15.10;;;2.70;;
84738;SDS011;74969;44.836;-0.586;2024-02-26T05:48:32;19.77;;;3.38;;
84738;SDS011;74969;44.836;-0.586;2024-02-26T05:50:57;20.73;;;2.33;;
84738;SDS011;74969;44.836;-0.586;2024-02-26T05:53:23;17.67;;;2.37;;
84738;SDS011;74969;44.836;-0.586;2024-02-26T05:55:49;15.27;;;2.70;;
84738;SDS011;74969;44.836;-0.586;2024-02-26T05:58:14;19.60;;;3.13;;
84738;SDS011;74969;44.836;-0.586;2024-02-26T06:00:40;17.17;;;2.28;;
84738;SDS011;74969;44.836;-0.586;2024-02-26T06:03:05;22.40;;;3.57;;
84738;SDS011;74969;44.836;-0.586;2024-02-26T06:05:31;24.35;;;3.00;;
84738;SDS011;74969;44.836;-0.586;2024-02-26T06:07:57;19.43;;;3.00;;
84738;SDS011;74969;44.836;-0.586;2024-02-26T06:10:23;20.95;;;3.33;;
84738;SDS011;74969;44.836;-0.586;2024-02-26T06:12:48;16.02;;;2.53;;
84738;SDS011;74969;44.836;-0.586;2024-02-26T06:15:14;14.63;;;2.85;;
84738;SDS011;74969;44.836;-0.586;2024-02-26T06:17:40;20.20;;;3.70;;
84738;SDS011;74969;44.836;-0.586;2024-02-26T06:20:06;16.67;;;3.07;;
84738;SDS011;74969;44.836;-0.586;2024-02-26T06:22:36;16.88;;;2.80;;
84738;SDS011;74969;44.836;-0.586;2024-02-26T06:25:02;20.60;;;3.10;;
84738;SDS011;74969;44.836;-0.586;2024-02-26T06:27:28;17.83;;;2.23;;
84738;SDS011;74969;44.836;-0.586;2024-02-26T06:29:53;20.10;;;3.03;;
84738;SDS011;74969;44.836;-0.586;2024-02-26T06:32:19;18.33;;;2.40;;
84738;SDS011;74969;44.836;-0.586;2024-02-26T06:34:45;18.13;;;3.13;;
84738;SDS011;74969;44.836;-0.586;2024-02-26T06:37:10;16.00;;;2.90;;
84738;SDS011;74969;44.836;-0.586;2024-02-26T06:39:36;22.73;;;3.33;;
84738;SDS011;74969;44.836;-0.586;2024-02-26T06:42:03;17.52;;;1.92;;
84738;SDS011;74969;44.836;-0.586;2024-02-26T06:44:29;13.73;;;2.60;;
84738;SDS011;74969;44.836;-0.586;2024-02-26T06:47:00;15.02;;;1.90;;
84738;SDS011;74969;44.836;-0.586;2024-02-26T06:49:26;21.17;;;2.40;;
84738;SDS011;74969;44.836;-0.586;2024-02-26T06:51:52;15.07;;;2.63;;
84738;SDS011;74969;44.836;-0.586;2024-02-26T06:54:18;21.58;;;3.00;;
84738;SDS011;74969;44.836;-0.586;2024-02-26T06:56:43;20.70;;;2.57;;
84738;SDS011;74969;44.836;-0.586;2024-02-26T06:59:09;24.25;;;2.97;;
84738;SDS011;74969;44.836;-0.586;2024-02-26T07:01:35;20.33;;;3.90;;
84738;SDS011;74969;44.836;-0.586;2024-02-26T07:04:00;15.57;;;3.08;;
84738;SDS011;74969;44.836;-0.586;2024-02-26T07:06:29;19.03;;;3.37;;
84738;SDS011;74969;44.836;-0.586;2024-02-26T07:08:55;24.67;;;3.15;;
84738;SDS011;74969;44.836;-0.586;2024-02-26T07:11:21;16.38;;;3.15;;
84738;SDS011;74969;44.836;-0.586;2024-02-26T07:13:46;21.80;;;2.63;;
84738;SDS011;74969;44.836;-0.586;2024-02-26T07:16:12;16.67;;;2.30;;
84738;SDS011;74969;44.836;-0.586;2024-02-26T07:18:41;17.70;;;3.23;;
84738;SDS011;74969;44.836;-0.586;2024-02-26T07:21:08;17.25;;;2.30;;
84738;SDS011;74969;44.836;-0.586;2024-02-26T07:23:34;15.70;;;2.28;;
84738;SDS011;74969;44.836;-0.586;2024-02-26T07:26:00;23.57;;;2.10;;
84738;SDS011;74969;44.836;-0.586;2024-02-26T07:28:25;12.20;;;2.65;;
84738;SDS011;74969;44.836;-0.586;2024-02-26T07:30:51;9.97;;;1.67;;
84738;SDS011;74969;44.836;-0.586;2024-02-26T07:33:17;13.20;;;2.83;;
84738;SDS011;74969;44.836;-0.586;2024-02-26T07:35:42;11.50;;;2.60;;
84738;SDS011;74969;44.836;-0.586;2024-02-26T07:38:08;14.35;;;2.47;;
84738;SDS011;74969;44.836;-0.586;2024-02-26T07:40:34;12.07;;;2.25;;
84738;SDS011;74969;44.836;-0.586;2024-02-26T07:42:59;11.37;;;2.10;;
84738;SDS011;74969;44.836;-0.586;2024-02-26T07:45:25;10.63;;;2.20;;
84738;SDS011;74969;44.836;-0.586;2024-02-26T07:47:51;14.93;;;1.93;;
84738;SDS011;74969;44.836;-0.586;2024-02-26T07:50:17;11.85;;;2.35;;
84738;SDS011;74969;44.836;-0.586;2024-02-26T07:52:44;13.52;;;2.67;;
84738;SDS011;74969;44.836;-0.586;2024-02-26T07:55:10;16.47;;;3.00;;
84738;SDS011;74969;44.836;-0.586;2024-02-26T07:57:36;10.77;;;2.13;;
84738;SDS011;74969;44.836;-0.586;2024-02-26T08:00:02;7.60;;;1.73;;
84738;SDS011;74969;44.836;-0.586;2024-02-26T08:02:28;11.88;;;1.38;;
84738;SDS011;74969;44.836;-0.586;2024-02-26T08:04:54;9.32;;;1.25;;
84738;SDS011;74969;44.836;-0.586;2024-02-26T08:07:20;5.63;;;1.17;;
84738;SDS011;74969;44.836;-0.586;2024-02-26T08:09:46;5.75;;;1.10;;
84738;SDS011;74969;44.836;-0.586;2024-02-26T08:12:12;5.93;;;1.02;;
84738;SDS011;74969;44.836;-0.586;2024-02-26T08:14:38;6.90;;;1.10;;
84738;SDS011;74969;44.836;-0.586;2024-02-26T08:17:34;6.23;;;0.80;;
84738;SDS011;74969;44.836;-0.586;2024-02-26T08:22:53;7.07;;;1.08;;
84738;SDS011;74969;44.836;-0.586;2024-02-26T08:25:19;4.93;;;0.85;;
84738;SDS011;74969;44.836;-0.586;2024-02-26T08:27:45;4.47;;;0.97;;
84738;SDS011;74969;44.836;-0.586;2024-02-26T08:30:12;8.13;;;0.98;;
84738;SDS011;74969;44.836;-0.586;2024-02-26T08:32:41;5.63;;;0.90;;
84738;SDS011;74969;44.836;-0.586;2024-02-26T08:35:11;4.85;;;0.82;;
84738;SDS011;74969;44.836;-0.586;2024-02-26T08:37:36;7.60;;;1.20;;
84738;SDS011;74969;44.836;-0.586;2024-02-26T08:40:02;8.43;;;0.90;;
84738;SDS011;74969;44.836;-0.586;2024-02-26T08:42:29;6.57;;;1.20;;
84738;SDS011;74969;44.836;-0.586;2024-02-26T08:44:55;8.02;;;0.88;;
84738;SDS011;74969;44.836;-0.586;2024-02-26T08:47:20;4.65;;;0.60;;
84738;SDS011;74969;44.836;-0.586;2024-02-26T08:49:46;2.43;;;0.50;;
84738;SDS011;74969;44.836;-0.586;2024-02-26T08:52:13;3.70;;;1.02;;
84738;SDS011;74969;44.836;-0.586;2024-02-26T08:54:39;6.07;;;0.70;;
84738;SDS011;74969;44.836;-0.586;2024-02-26T08:57:05;5.28;;;0.70;;
84738;SDS011;74969;44.836;-0.586;2024-02-26T08:59:31;8.57;;;0.93;;
84738;SDS011;74969;44.836;-0.586;2024-02-26T09:01:57;3.30;;;1.00;;
84738;SDS011;74969;44.836;-0.586;2024-02-26T09:04:22;7.18;;;1.08;;
84738;SDS011;74969;44.836;-0.586;2024-02-26T09:06:48;6.33;;;1.23;;
84738;SDS011;74969;44.836;-0.586;2024-02-26T09:09:14;7.30;;;0.80;;
84738;SDS011;74969;44.836;-0.586;2024-02-26T09:11:40;5.03;;;1.13;;
84738;SDS011;74969;44.836;-0.586;2024-02-26T09:14:05;5.23;;;1.13;;
84738;SDS011;74969;44.836;-0.586;2024-02-26T09:16:31;5.28;;;1.17;;
84738;SDS011;74969;44.836;-0.586;2024-02-26T09:18:57;9.80;;;1.03;;
84738;SDS011;74969;44.836;-0.586;2024-02-26T09:21:22;7.73;;;1.10;;
84738;SDS011;74969;44.836;-0.586;2024-02-26T09:23:50;9.18;;;2.03;;
84738;SDS011;74969;44.836;-0.586;2024-02-26T09:27:07;6.05;;;1.38;;
84738;SDS011;74969;44.836;-0.586;2024-02-26T09:29:34;6.05;;;1.77;;
84738;SDS011;74969;44.836;-0.586;2024-02-26T09:32:00;4.97;;;1.42;;
84738;SDS011;74969;44.836;-0.586;2024-02-26T09:34:26;6.43;;;1.27;;
84738;SDS011;74969;44.836;-0.586;2024-02-26T09:36:52;4.43;;;0.93;;
84738;SDS011;74969;44.836;-0.586;2024-02-26T09:39:18;5.20;;;1.50;;
84738;SDS011;74969;44.836;-0.586;2024-02-26T09:41:47;5.18;;;0.93;;
84738;SDS011;74969;44.836;-0.586;2024-02-26T09:44:14;4.65;;;1.33;;
84738;SDS011;74969;44.836;-0.586;2024-02-26T09:46:44;6.68;;;1.40;;
84738;SDS011;74969;44.836;-0.586;2024-02-26T09:49:10;8.57;;;1.57;;
84738;SDS011;74969;44.836;-0.586;2024-02-26T09:51:38;11.90;;;1.98;;
84738;SDS011;74969;44.836;-0.586;2024-02-26T09:54:04;7.20;;;2.78;;
84738;SDS011;74969;44.836;-0.586;2024-02-26T09:56:34;7.93;;;1.15;;
84738;SDS011;74969;44.836;-0.586;2024-02-26T09:59:02;8.70;;;1.90;;
84738;SDS011;74969;44.836;-0.586;2024-02-26T10:01:35;6.35;;;1.25;;
84738;SDS011;74969;44.836;-0.586;2024-02-26T10:04:04;6.22;;;1.40;;
84738;SDS011;74969;44.836;-0.586;2024-02-26T10:06:30;9.80;;;1.45;;
84738;SDS011;74969;44.836;-0.586;2024-02-26T10:08:56;5.47;;;1.97;;
84738;SDS011;74969;44.836;-0.586;2024-02-26T10:11:23;7.22;;;1.92;;
84738;SDS011;74969;44.836;-0.586;2024-02-26T10:13:49;5.13;;;1.27;;
84738;SDS011;74969;44.836;-0.586;2024-02-26T10:17:32;7.53;;;1.00;;
84738;SDS011;74969;44.836;-0.586;2024-02-26T10:22:41;4.07;;;1.02;;
84738;SDS011;74969;44.836;-0.586;2024-02-26T10:25:07;5.88;;;0.90;;
84738;SDS011;74969;44.836;-0.586;2024-02-26T10:27:34;2.28;;;1.00;;
84738;SDS011;74969;44.836;-0.586;2024-02-26T10:30:42;4.40;;;1.17;;
84738;SDS011;74969;44.836;-0.586;2024-02-26T10:32:50;4.13;;;1.17;;
84738;SDS011;74969;44.836;-0.586;2024-02-26T10:35:17;2.45;;;0.95;;
84738;SDS011;74969;44.836;-0.586;2024-02-26T10:37:45;4.63;;;1.10;;
84738;SDS011;74969;44.836;-0.586;2024-02-26T10:40:12;4.78;;;1.05;;
84738;SDS011;74969;44.836;-0.586;2024-02-26T10:42:39;6.25;;;1.35;;
84738;SDS011;74969;44.836;-0.586;2024-02-26T10:45:09;8.97;;;1.40;;
84738;SDS011;74969;44.836;-0.586;2024-02-26T10:47:35;3.80;;;1.15;;
84738;SDS011;74969;44.836;-0.586;2024-02-26T10:50:02;5.22;;;1.20;;
84738;SDS011;74969;44.836;-0.586;2024-02-26T10:52:31;7.30;;;1.55;;
84738;SDS011;74969;44.836;-0.586;2024-02-26T10:54:59;10.60;;;1.45;;
84738;SDS011;74969;44.836;-0.586;2024-02-26T10:57:34;6.17;;;1.20;;
84738;SDS011;74969;44.836;-0.586;2024-02-26T11:00:05;8.25;;;1.70;;
84738;SDS011;74969;44.836;-0.586;2024-02-26T11:02:34;4.88;;;1.67;;
84738;SDS011;74969;44.836;-0.586;2024-02-26T11:05:04;5.47;;;1.00;;
84738;SDS011;74969;44.836;-0.586;2024-02-26T11:07:31;4.32;;;1.20;;
84738;SDS011;74969;44.836;-0.586;2024-02-26T11:10:00;7.77;;;1.40;;
84738;SDS011;74969;44.836;-0.586;2024-02-26T11:12:29;5.45;;;1.08;;
84738;SDS011;74969;44.836;-0.586;2024-02-26T11:14:56;4.47;;;0.88;;
84738;SDS011;74969;44.836;-0.586;2024-02-26T11:17:23;11.30;;;1.67;;
84738;SDS011;74969;44.836;-0.586;2024-02-26T11:19:53;6.97;;;1.40;;
84738;SDS011;74969;44.836;-0.586;2024-02-26T11:22:21;5.37;;;1.30;;
84738;SDS011;74969;44.836;-0.586;2024-02-26T11:24:51;7.50;;;1.92;;
84738;SDS011;74969;44.836;-0.586;2024-02-26T11:27:19;6.10;;;1.23;;
84738;SDS011;74969;44.836;-0.586;2024-02-26T11:29:50;5.13;;;1.23;;
84738;SDS011;74969;44.836;-0.586;2024-02-26T11:32:17;8.63;;;1.00;;
84738;SDS011;74969;44.836;-0.586;2024-02-26T11:34:43;6.13;;;1.33;;
84738;SDS011;74969;44.836;-0.586;2024-02-26T11:37:18;8.57;;;2.33;;
84738;SDS011;74969;44.836;-0.586;2024-02-26T11:39:45;5.95;;;1.73;;
84738;SDS011;74969;44.836;-0.586;2024-02-26T11:42:13;7.38;;;1.38;;
84738;SDS011;74969;44.836;-0.586;2024-02-26T11:44:40;4.55;;;1.10;;
84738;SDS011;74969;44.836;-0.586;2024-02-26T11:47:20;3.83;;;1.00;;
84738;SDS011;74969;44.836;-0.586;2024-02-26T11:49:47;4.65;;;0.82;;
84738;SDS011;74969;44.836;-0.586;2024-02-26T11:52:14;4.35;;;0.80;;
84738;SDS011;74969;44.836;-0.586;2024-02-26T11:54:45;6.07;;;0.80;;
84738;SDS011;74969;44.836;-0.586;2024-02-26T11:57:31;3.88;;;0.70;;
84738;SDS011;74969;44.836;-0.586;2024-02-26T12:02:38;1.50;;;0.60;;
84738;SDS011;74969;44.836;-0.586;2024-02-26T12:05:15;2.20;;;0.40;;
84738;SDS011;74969;44.836;-0.586;2024-02-26T12:07:43;4.35;;;0.60;;
84738;SDS011;74969;44.836;-0.586;2024-02-26T12:13:12;1.52;;;0.30;;
84738;SDS011;74969;44.836;-0.586;2024-02-26T12:18:08;3.95;;;0.50;;
84738;SDS011;74969;44.836;-0.586;2024-02-26T12:20:36;3.20;;;0.30;;
84738;SDS011;74969;44.836;-0.586;2024-02-26T12:23:02;3.05;;;0.45;;
84738;SDS011;74969;44.836;-0.586;2024-02-26T12:25:32;1.27;;;0.30;;
84738;SDS011;74969;44.836;-0.586;2024-02-26T12:27:58;2.10;;;0.40;;
84738;SDS011;74969;44.836;-0.586;2024-02-26T12:30:24;2.58;;;0.52;;
84738;SDS011;74969;44.836;-0.586;2024-02-26T12:32:52;1.25;;;0.47;;
84738;SDS011;74969;44.836;-0.586;2024-02-26T12:35:22;0.52;;;0.30;;
84738;SDS011;74969;44.836;-0.586;2024-02-26T12:37:49;1.50;;;0.30;;
84738;SDS011;74969;44.836;-0.586;2024-02-26T12:40:16;1.83;;;0.38;;
84738;SDS011;74969;44.836;-0.586;2024-02-26T12:42:42;3.28;;;0.40;;
84738;SDS011;74969;44.836;-0.586;2024-02-26T12:45:12;1.67;;;0.28;;
84738;SDS011;74969;44.836;-0.586;2024-02-26T12:47:39;2.80;;;0.30;;
84738;SDS011;74969;44.836;-0.586;2024-02-26T12:50:06;3.10;;;0.50;;
84738;SDS011;74969;44.836;-0.586;2024-02-26T12:52:34;2.45;;;0.30;;
84738;SDS011;74969;44.836;-0.586;2024-02-26T12:55:01;3.88;;;0.50;;
84738;SDS011;74969;44.836;-0.586;2024-02-26T12:57:29;3.03;;;0.40;;
84738;SDS011;74969;44.836;-0.586;2024-02-26T12:59:59;7.97;;;0.55;;
84738;SDS011;74969;44.836;-0.586;2024-02-26T13:02:25;1.23;;;0.43;;
84738;SDS011;74969;44.836;-0.586;2024-02-26T13:04:52;2.80;;;0.60;;
84738;SDS011;74969;44.836;-0.586;2024-02-26T13:07:20;0.60;;;0.30;;
84738;SDS011;74969;44.836;-0.586;2024-02-26T13:09:46;1.75;;;0.38;;
84738;SDS011;74969;44.836;-0.586;2024-02-26T13:12:12;2.03;;;0.55;;
84738;SDS011;74969;44.836;-0.586;2024-02-26T13:14:39;2.30;;;0.50;;
84738;SDS011;74969;44.836;-0.586;2024-02-26T13:17:04;1.57;;;0.40;;
84738;SDS011;74969;44.836;-0.586;2024-02-26T13:19:30;1.67;;;0.50;;
84738;SDS011;74969;44.836;-0.586;2024-02-26T13:22:02;1.70;;;0.30;;
84738;SDS011;74969;44.836;-0.586;2024-02-26T13:24:34;2.10;;;0.23;;
84738;SDS011;74969;44.836;-0.586;2024-02-26T13:27:00;2.05;;;0.20;;
84738;SDS011;74969;44.836;-0.586;2024-02-26T13:29:28;0.82;;;0.30;;
84738;SDS011;74969;44.836;-0.586;2024-02-26T13:31:55;4.50;;;0.97;;
84738;SDS011;74969;44.836;-0.586;2024-02-26T13:34:28;1.52;;;0.30;;
84738;SDS011;74969;44.836;-0.586;2024-02-26T13:36:56;2.15;;;0.40;;
84738;SDS011;74969;44.836;-0.586;2024-02-26T13:39:25;0.75;;;0.20;;
84738;SDS011;74969;44.836;-0.586;2024-02-26T13:41:52;1.85;;;0.30;;
84738;SDS011;74969;44.836;-0.586;2024-02-26T13:44:21;3.97;;;0.30;;
84738;SDS011;74969;44.836;-0.586;2024-02-26T13:46:47;1.02;;;0.20;;
84738;SDS011;74969;44.836;-0.586;2024-02-26T13:49:14;2.50;;;0.32;;
84738;SDS011;74969;44.836;-0.586;2024-02-26T13:51:40;2.10;;;0.40;;
84738;SDS011;74969;44.836;-0.586;2024-02-26T13:54:06;2.17;;;1.33;;
84738;SDS011;74969;44.836;-0.586;2024-02-26T13:56:48;3.92;;;0.68;;
84738;SDS011;74969;44.836;-0.586;2024-02-26T13:59:13;2.00;;;0.50;;
84738;SDS011;74969;44.836;-0.586;2024-02-26T14:01:39;1.35;;;0.40;;
84738;SDS011;74969;44.836;-0.586;2024-02-26T14:04:04;1.20;;;0.40;;
84738;SDS011;74969;44.836;-0.586;2024-02-26T14:08:40;1.13;;;0.40;;
84738;SDS011;74969;44.836;-0.586;2024-02-26T14:11:05;3.15;;;0.85;;
84738;SDS011;74969;44.836;-0.586;2024-02-26T14:13:31;2.00;;;0.50;;
84738;SDS011;74969;44.836;-0.586;2024-02-26T14:15:57;1.23;;;0.40;;
84738;SDS011;74969;44.836;-0.586;2024-02-26T14:18:23;3.13;;;0.40;;
84738;SDS011;74969;44.836;-0.586;2024-02-26T14:20:49;2.28;;;0.50;;
84738;SDS011;74969;44.836;-0.586;2024-02-26T14:23:15;4.07;;;0.40;;
84738;SDS011;74969;44.836;-0.586;2024-02-26T14:25:40;2.70;;;0.20;;
84738;SDS011;74969;44.836;-0.586;2024-02-26T14:28:09;0.90;;;0.28;;
84738;SDS011;74969;44.836;-0.586;2024-02-26T14:30:35;0.37;;;0.20;;
84738;SDS011;74969;44.836;-0.586;2024-02-26T14:33:00;1.13;;;0.32;;
84738;SDS011;74969;44.836;-0.586;2024-02-26T14:35:26;2.60;;;0.90;;
84738;SDS011;74969;44.836;-0.586;2024-02-26T14:37:51;1.57;;;0.40;;
84738;SDS011;74969;44.836;-0.586;2024-02-26T14:40:19;1.58;;;0.50;;